aviador You're here:

YBRK Decoded Metar

ROCKHAMPTON in AUSTRALIA
Report Time2017-11-21 06:00:00
UTC Time2017-11-21 06:15:27
Flight Rules vfr VFR
Wind080° at 09 kt
W.Decomp.*RWY 04: 7.7 kt HW 4.6 kt RCW
RWY 15: 1.7 kt HW 8.8 kt LCW
W.Rank080° ranks 8
Current wind is above 080° avg. (7.0)
Visibility9999 m
Phenomena:N/A
Clouds:Few 040 Hf
Broken 220 Hf
Expected CloudBase > 4,400 ft AGL from Temp-Dew spread
Ceiling22,000 ft
Temp25°C (ISA +10)
Dew Point14°C (51% RH)
AAT23.1°C
QNH1013 hPa
Density Alt1,430 ft
Elevation46 ft
Report Wrong Elevation
Raw Report
METAR YBRK 210600Z 08009KT 9999 FEW040 BKN220 25/14 Q1013=

Extra information for YBRK:More info

Metar Taf Metar & Taf Last 4 Metars F.Rules Stats Wind Profile Meteogram Temp Stats Airport Information Weather charts Add Link Nearby VenuesMetar ALERT Operation Metar Decoded Social comments